createdAt,value
2016-07-31T00:00:08.554Z,1008.78
2016-07-31T00:00:18.552Z,1008.75
2016-07-31T00:00:28.547Z,1008.78
2016-07-31T00:00:38.541Z,1008.73
2016-07-31T00:00:48.541Z,1008.73
2016-07-31T00:00:58.533Z,1008.81
2016-07-31T00:01:08.530Z,1008.79
2016-07-31T00:01:18.524Z,1008.72
2016-07-31T00:01:28.518Z,1008.76
2016-07-31T00:01:38.515Z,1008.78
2016-07-31T00:01:48.511Z,1008.76
2016-07-31T00:01:58.505Z,1008.8
2016-07-31T00:02:08.501Z,1008.8
2016-07-31T00:02:18.496Z,1008.77
2016-07-31T00:02:28.490Z,1008.76
2016-07-31T00:02:38.486Z,1008.73
2016-07-31T00:02:48.482Z,1008.75
2016-07-31T00:02:58.478Z,1008.81
2016-07-31T00:03:08.475Z,1008.78
2016-07-31T00:03:18.469Z,1008.78
2016-07-31T00:03:28.464Z,1008.79
2016-07-31T00:03:38.460Z,1008.74
2016-07-31T00:03:48.452Z,1008.75
2016-07-31T00:03:58.450Z,1008.76
2016-07-31T00:04:08.446Z,1008.77
2016-07-31T00:04:18.438Z,1008.75
2016-07-31T00:04:28.437Z,1008.7
2016-07-31T00:04:38.432Z,1008.71
2016-07-31T00:04:48.426Z,1008.73
2016-07-31T00:04:58.423Z,1008.68
2016-07-31T00:05:08.421Z,1008.72
2016-07-31T00:05:18.414Z,1008.73
2016-07-31T00:05:28.409Z,1008.74
2016-07-31T00:05:38.403Z,1008.71
2016-07-31T00:05:48.398Z,1008.73
2016-07-31T00:05:58.395Z,1008.7
2016-07-31T00:06:08.388Z,1008.7
2016-07-31T00:06:18.387Z,1008.7
2016-07-31T00:06:28.380Z,1008.7
2016-07-31T00:06:38.377Z,1008.74
2016-07-31T00:06:48.370Z,1008.77
2016-07-31T00:06:58.366Z,1008.72
2016-07-31T00:07:08.362Z,1008.69
2016-07-31T00:07:18.358Z,1008.7
2016-07-31T00:07:28.352Z,1008.71
2016-07-31T00:07:38.351Z,1008.77
2016-07-31T00:07:48.343Z,1008.72
2016-07-31T00:07:58.340Z,1008.76
2016-07-31T00:08:08.335Z,1008.72
2016-07-31T00:08:18.331Z,1008.74
2016-07-31T00:08:28.324Z,1008.71
2016-07-31T00:08:38.319Z,1008.71
2016-07-31T00:08:48.318Z,1008.74
2016-07-31T00:08:58.317Z,1008.69
2016-07-31T00:09:08.310Z,1008.74
2016-07-31T00:09:18.301Z,1008.72
2016-07-31T00:09:28.298Z,1008.7
2016-07-31T00:09:38.295Z,1008.72
2016-07-31T00:09:48.288Z,1008.72
2016-07-31T00:09:58.284Z,1008.75
2016-07-31T00:10:08.279Z,1008.73
2016-07-31T00:10:18.272Z,1008.76
2016-07-31T00:10:28.270Z,1008.73
2016-07-31T00:10:38.267Z,1008.77
2016-07-31T00:10:48.260Z,1008.73
2016-07-31T00:10:58.257Z,1008.76
2016-07-31T00:11:08.252Z,1008.75
2016-07-31T00:11:18.248Z,1008.74
2016-07-31T00:11:28.241Z,1008.75
2016-07-31T00:11:38.237Z,1008.79
2016-07-31T00:11:48.231Z,1008.78
2016-07-31T00:11:58.231Z,1008.8
2016-07-31T00:12:08.222Z,1008.75
2016-07-31T00:12:18.219Z,1008.73
2016-07-31T00:12:28.215Z,1008.78
2016-07-31T00:12:38.208Z,1008.74
2016-07-31T00:12:48.205Z,1008.75
2016-07-31T00:12:58.202Z,1008.76
2016-07-31T00:13:08.196Z,1008.76
2016-07-31T00:13:18.192Z,1008.74
2016-07-31T00:13:28.186Z,1008.78
2016-07-31T00:13:38.181Z,1008.79
2016-07-31T00:13:48.179Z,1008.77
2016-07-31T00:13:58.171Z,1008.77
2016-07-31T00:14:08.167Z,1008.77
2016-07-31T00:14:18.165Z,1008.74
2016-07-31T00:14:28.160Z,1008.77
2016-07-31T00:14:38.152Z,1008.76
2016-07-31T00:14:48.149Z,1008.76
2016-07-31T00:14:58.144Z,1008.74
2016-07-31T00:15:08.141Z,1008.76
2016-07-31T00:15:18.135Z,1008.72
2016-07-31T00:15:28.131Z,1008.7
2016-07-31T00:15:38.126Z,1008.7
2016-07-31T00:15:48.122Z,1008.74
2016-07-31T00:15:58.116Z,1008.76
2016-07-31T00:16:08.112Z,1008.72
2016-07-31T00:16:18.107Z,1008.72
2016-07-31T00:16:28.103Z,1008.67
2016-07-31T00:16:38.100Z,1008.72
2016-07-31T00:16:48.094Z,1008.73
2016-07-31T00:16:58.090Z,1008.72
2016-07-31T00:17:08.084Z,1008.74
2016-07-31T00:17:18.081Z,1008.68
2016-07-31T00:17:28.076Z,1008.71
2016-07-31T00:17:38.072Z,1008.66
2016-07-31T00:17:48.070Z,1008.69
2016-07-31T00:17:58.060Z,1008.69
2016-07-31T00:18:08.056Z,1008.72
2016-07-31T00:18:18.051Z,1008.73
2016-07-31T00:18:28.047Z,1008.73
2016-07-31T00:18:38.047Z,1008.72
2016-07-31T00:18:48.039Z,1008.7
2016-07-31T00:18:58.034Z,1008.74
2016-07-31T00:19:08.029Z,1008.71
2016-07-31T00:19:18.024Z,1008.72
2016-07-31T00:19:28.020Z,1008.76
2016-07-31T00:19:38.015Z,1008.7
2016-07-31T00:19:48.011Z,1008.72
2016-07-31T00:19:58.006Z,1008.75
2016-07-31T00:20:08.003Z,1008.68
2016-07-31T00:20:17.997Z,1008.73
2016-07-31T00:20:27.993Z,1008.71
2016-07-31T00:20:37.989Z,1008.69
2016-07-31T00:20:47.984Z,1008.74
2016-07-31T00:20:57.977Z,1008.69
2016-07-31T00:21:07.972Z,1008.71
2016-07-31T00:21:17.971Z,1008.7
2016-07-31T00:21:27.965Z,1008.68
2016-07-31T00:21:37.961Z,1008.67
2016-07-31T00:21:47.957Z,1008.64
2016-07-31T00:21:58.680Z,1008.64
2016-07-31T00:22:07.948Z,1008.69
2016-07-31T00:22:17.942Z,1008.66
2016-07-31T00:22:27.936Z,1008.65
2016-07-31T00:22:37.930Z,1008.63
2016-07-31T00:22:47.926Z,1008.66
2016-07-31T00:22:57.922Z,1008.65
2016-07-31T00:23:07.919Z,1008.65
2016-07-31T00:23:17.915Z,1008.65
2016-07-31T00:23:27.909Z,1008.64
2016-07-31T00:23:37.904Z,1008.6
2016-07-31T00:23:47.901Z,1008.64
2016-07-31T00:23:57.894Z,1008.64
2016-07-31T00:24:07.887Z,1008.63
2016-07-31T00:24:17.886Z,1008.62
2016-07-31T00:24:27.883Z,1008.59
2016-07-31T00:24:37.874Z,1008.61
2016-07-31T00:24:47.871Z,1008.65
2016-07-31T00:24:57.867Z,1008.62
2016-07-31T00:25:07.861Z,1008.62
2016-07-31T00:25:17.856Z,1008.64
2016-07-31T00:25:27.854Z,1008.66
2016-07-31T00:25:37.849Z,1008.64
2016-07-31T00:25:47.852Z,1008.58
2016-07-31T00:25:57.840Z,1008.64
2016-07-31T00:26:07.837Z,1008.59
2016-07-31T00:26:17.829Z,1008.61
2016-07-31T00:26:27.825Z,1008.64
2016-07-31T00:26:37.821Z,1008.58
2016-07-31T00:26:48.545Z,1008.61
2016-07-31T00:26:57.813Z,1008.63
2016-07-31T00:27:07.807Z,1008.59
2016-07-31T00:27:17.802Z,1008.6
2016-07-31T00:27:27.798Z,1008.6
2016-07-31T00:27:37.791Z,1008.58
2016-07-31T00:27:47.787Z,1008.61
2016-07-31T00:27:57.784Z,1008.6
2016-07-31T00:28:07.778Z,1008.63
2016-07-31T00:28:17.775Z,1008.54
2016-07-31T00:28:27.770Z,1008.59
2016-07-31T00:28:37.764Z,1008.6
2016-07-31T00:28:47.762Z,1008.6
2016-07-31T00:28:57.757Z,1008.6
2016-07-31T00:29:07.753Z,1008.6
2016-07-31T00:29:17.757Z,1008.59
2016-07-31T00:29:27.742Z,1008.63
2016-07-31T00:29:37.738Z,1008.58
2016-07-31T00:29:47.734Z,1008.59
2016-07-31T00:29:57.728Z,1008.6
2016-07-31T00:30:07.725Z,1008.59
2016-07-31T00:30:17.720Z,1008.6
2016-07-31T00:30:27.715Z,1008.57
2016-07-31T00:30:37.709Z,1008.59
2016-07-31T00:30:47.706Z,1008.58
2016-07-31T00:30:57.702Z,1008.65
2016-07-31T00:31:07.698Z,1008.63
2016-07-31T00:31:17.691Z,1008.57
2016-07-31T00:31:27.688Z,1008.58
2016-07-31T00:31:37.682Z,1008.56
2016-07-31T00:31:47.676Z,1008.63
2016-07-31T00:31:57.674Z,1008.58
2016-07-31T00:32:07.667Z,1008.59
2016-07-31T00:32:17.666Z,1008.57
2016-07-31T00:32:27.659Z,1008.59
2016-07-31T00:32:37.652Z,1008.59
2016-07-31T00:32:47.649Z,1008.54
2016-07-31T00:32:57.656Z,1008.59
2016-07-31T00:33:07.642Z,1008.56
2016-07-31T00:33:17.637Z,1008.59
2016-07-31T00:33:27.632Z,1008.57
2016-07-31T00:33:37.625Z,1008.52
2016-07-31T00:33:47.622Z,1008.53
2016-07-31T00:33:57.614Z,1008.56
2016-07-31T00:34:07.612Z,1008.56
2016-07-31T00:34:17.608Z,1008.53
2016-07-31T00:34:27.602Z,1008.56
2016-07-31T00:34:37.599Z,1008.55
2016-07-31T00:34:47.595Z,1008.55
2016-07-31T00:34:57.589Z,1008.56
2016-07-31T00:35:07.743Z,1008.55
2016-07-31T00:35:17.579Z,1008.55
2016-07-31T00:35:27.574Z,1008.55
2016-07-31T00:35:37.569Z,1008.54
2016-07-31T00:35:47.563Z,1008.52
2016-07-31T00:35:57.562Z,1008.5
2016-07-31T00:36:07.557Z,1008.55
2016-07-31T00:36:17.552Z,1008.52
2016-07-31T00:36:27.547Z,1008.55
2016-07-31T00:36:37.543Z,1008.5
2016-07-31T00:36:47.539Z,1008.53
2016-07-31T00:36:57.540Z,1008.54
2016-07-31T00:37:07.529Z,1008.54
2016-07-31T00:37:17.525Z,1008.52
2016-07-31T00:37:27.520Z,1008.5
2016-07-31T00:37:37.516Z,1008.5
2016-07-31T00:37:47.512Z,1008.54
2016-07-31T00:37:57.506Z,1008.55
2016-07-31T00:38:07.500Z,1008.49
2016-07-31T00:38:17.497Z,1008.52
2016-07-31T00:38:27.492Z,1008.48
2016-07-31T00:38:37.487Z,1008.47
2016-07-31T00:38:47.483Z,1008.44
2016-07-31T00:38:57.480Z,1008.51
2016-07-31T00:39:07.482Z,1008.51
2016-07-31T00:39:17.470Z,1008.47
2016-07-31T00:39:27.465Z,1008.44
2016-07-31T00:39:37.456Z,1008.45
2016-07-31T00:39:47.454Z,1008.43
2016-07-31T00:39:57.451Z,1008.42
2016-07-31T00:40:07.444Z,1008.41
2016-07-31T00:40:17.442Z,1008.4
2016-07-31T00:40:27.437Z,1008.43
2016-07-31T00:40:37.441Z,1008.43
2016-07-31T00:40:47.431Z,1008.39
2016-07-31T00:40:58.152Z,1008.43
2016-07-31T00:41:07.418Z,1008.45
2016-07-31T00:41:17.411Z,1008.41
2016-07-31T00:41:27.408Z,1008.44
2016-07-31T00:41:37.405Z,1008.44
2016-07-31T00:41:47.400Z,1008.43
2016-07-31T00:41:57.392Z,1008.4
2016-07-31T00:42:07.391Z,1008.42
2016-07-31T00:42:17.386Z,1008.43
2016-07-31T00:42:27.381Z,1008.37
2016-07-31T00:42:37.379Z,1008.39
2016-07-31T00:42:47.369Z,1008.39
2016-07-31T00:42:57.366Z,1008.44
2016-07-31T00:43:07.363Z,1008.36
2016-07-31T00:43:17.356Z,1008.33
2016-07-31T00:43:27.353Z,1008.36
2016-07-31T00:43:37.349Z,1008.34
2016-07-31T00:43:47.343Z,1008.38
2016-07-31T00:43:57.340Z,1008.31
2016-07-31T00:44:07.335Z,1008.33
2016-07-31T00:44:17.333Z,1008.38
2016-07-31T00:44:27.325Z,1008.32
2016-07-31T00:44:37.319Z,1008.35
2016-07-31T00:44:47.316Z,1008.35
2016-07-31T00:44:57.309Z,1008.39
2016-07-31T00:45:07.306Z,1008.32
2016-07-31T00:45:17.303Z,1008.37
2016-07-31T00:45:27.296Z,1008.32
2016-07-31T00:45:37.294Z,1008.34
2016-07-31T00:45:47.292Z,1008.36
2016-07-31T00:45:57.281Z,1008.34
2016-07-31T00:46:07.280Z,1008.37
2016-07-31T00:46:17.272Z,1008.32
2016-07-31T00:46:27.270Z,1008.31
2016-07-31T00:46:37.266Z,1008.31
2016-07-31T00:46:47.261Z,1008.28
2016-07-31T00:46:57.256Z,1008.37
2016-07-31T00:47:07.254Z,1008.33
2016-07-31T00:47:17.246Z,1008.3
2016-07-31T00:47:27.242Z,1008.31
2016-07-31T00:47:37.235Z,1008.34
2016-07-31T00:47:47.232Z,1008.27
2016-07-31T00:47:57.227Z,1008.31
2016-07-31T00:48:07.222Z,1008.29
2016-07-31T00:48:17.220Z,1008.29
2016-07-31T00:48:27.212Z,1008.27
2016-07-31T00:48:37.208Z,1008.29
2016-07-31T00:48:47.205Z,1008.29
2016-07-31T00:48:57.199Z,1008.27
2016-07-31T00:49:07.197Z,1008.33
2016-07-31T00:49:17.190Z,1008.29
2016-07-31T00:49:27.186Z,1008.29
2016-07-31T00:49:37.181Z,1008.26
2016-07-31T00:49:47.178Z,1008.24
2016-07-31T00:49:57.172Z,1008.27
2016-07-31T00:50:07.170Z,1008.31
2016-07-31T00:50:17.161Z,1008.27
2016-07-31T00:50:27.158Z,1008.28
2016-07-31T00:50:37.153Z,1008.29
2016-07-31T00:50:47.149Z,1008.25
2016-07-31T00:50:57.143Z,1008.28
2016-07-31T00:51:07.139Z,1008.32
2016-07-31T00:51:17.135Z,1008.29
2016-07-31T00:51:27.132Z,1008.28
2016-07-31T00:51:37.128Z,1008.32
2016-07-31T00:51:47.122Z,1008.27
2016-07-31T00:51:57.118Z,1008.34
2016-07-31T00:52:07.111Z,1008.29
2016-07-31T00:52:17.107Z,1008.29
2016-07-31T00:52:27.107Z,1008.32
2016-07-31T00:52:37.099Z,1008.26
2016-07-31T00:52:47.092Z,1008.27
2016-07-31T00:52:57.087Z,1008.27
2016-07-31T00:53:07.085Z,1008.27
2016-07-31T00:53:17.079Z,1008.31
2016-07-31T00:53:27.075Z,1008.28
2016-07-31T00:53:37.068Z,1008.27
2016-07-31T00:53:47.066Z,1008.28
2016-07-31T00:53:57.070Z,1008.26
2016-07-31T00:54:07.057Z,1008.28
2016-07-31T00:54:17.053Z,1008.3
2016-07-31T00:54:27.049Z,1008.29
2016-07-31T00:54:37.045Z,1008.27
2016-07-31T00:54:47.036Z,1008.29
2016-07-31T00:54:57.031Z,1008.34
2016-07-31T00:55:07.029Z,1008.28
2016-07-31T00:55:17.024Z,1008.28
2016-07-31T00:55:27.019Z,1008.28
2016-07-31T00:55:37.013Z,1008.28
2016-07-31T00:55:47.011Z,1008.27
2016-07-31T00:55:57.005Z,1008.26
2016-07-31T00:56:07.001Z,1008.28
2016-07-31T00:56:16.998Z,1008.31
2016-07-31T00:56:26.990Z,1008.28
2016-07-31T00:56:36.986Z,1008.27
2016-07-31T00:56:46.983Z,1008.28
2016-07-31T00:56:56.991Z,1008.28
2016-07-31T00:57:06.974Z,1008.3
2016-07-31T00:57:16.966Z,1008.27
2016-07-31T00:57:26.962Z,1008.35
2016-07-31T00:57:36.959Z,1008.23
2016-07-31T00:57:46.959Z,1008.25
2016-07-31T00:57:56.950Z,1008.31
2016-07-31T00:58:06.946Z,1008.27
2016-07-31T00:58:16.940Z,1008.28
2016-07-31T00:58:26.935Z,1008.25
2016-07-31T00:58:36.933Z,1008.31
2016-07-31T00:58:46.927Z,1008.28
2016-07-31T00:58:56.923Z,1008.29
2016-07-31T00:59:06.918Z,1008.28
2016-07-31T00:59:16.911Z,1008.3
2016-07-31T00:59:26.925Z,1008.3
2016-07-31T00:59:36.901Z,1008.3
2016-07-31T00:59:46.900Z,1008.29
2016-07-31T00:59:56.894Z,1008.29
2016-07-31T01:00:06.890Z,1008.3
2016-07-31T01:00:16.886Z,1008.3
2016-07-31T01:00:26.883Z,1008.29
2016-07-31T01:00:36.874Z,1008.32
2016-07-31T01:00:46.870Z,1008.29
2016-07-31T01:00:56.865Z,1008.28
2016-07-31T01:01:06.859Z,1008.28
2016-07-31T01:01:16.858Z,1008.28
2016-07-31T01:01:26.852Z,1008.32
2016-07-31T01:01:36.846Z,1008.32
2016-07-31T01:01:46.844Z,1008.26
2016-07-31T01:01:56.835Z,1008.26
2016-07-31T01:02:06.832Z,1008.23
2016-07-31T01:02:16.829Z,1008.24
2016-07-31T01:02:26.824Z,1008.24
2016-07-31T01:02:36.820Z,1008.25
2016-07-31T01:02:46.821Z,1008.28
2016-07-31T01:02:56.807Z,1008.29
2016-07-31T01:03:06.807Z,1008.25
2016-07-31T01:03:16.799Z,1008.25
2016-07-31T01:03:26.795Z,1008.27
2016-07-31T01:03:36.801Z,1008.22
2016-07-31T01:03:46.784Z,1008.26
2016-07-31T01:03:56.780Z,1008.25
2016-07-31T01:04:06.776Z,1008.28
2016-07-31T01:04:16.771Z,1008.25
2016-07-31T01:04:26.769Z,1008.22
2016-07-31T01:04:36.763Z,1008.24
2016-07-31T01:04:46.758Z,1008.25
2016-07-31T01:04:56.755Z,1008.23
2016-07-31T01:05:06.750Z,1008.19
2016-07-31T01:05:16.745Z,1008.24
2016-07-31T01:05:26.738Z,1008.26
2016-07-31T01:05:36.736Z,1008.23
2016-07-31T01:05:46.731Z,1008.24
2016-07-31T01:05:56.727Z,1008.26
2016-07-31T01:06:06.721Z,1008.24
2016-07-31T01:06:16.717Z,1008.22
2016-07-31T01:06:26.716Z,1008.2
2016-07-31T01:06:36.709Z,1008.22
2016-07-31T01:06:46.704Z,1008.25
2016-07-31T01:06:56.700Z,1008.23
2016-07-31T01:07:06.693Z,1008.24
2016-07-31T01:07:16.686Z,1008.24
2016-07-31T01:07:26.685Z,1008.18
2016-07-31T01:07:36.678Z,1008.18
2016-07-31T01:07:46.675Z,1008.18
2016-07-31T01:07:56.673Z,1008.22
2016-07-31T01:08:06.665Z,1008.17
2016-07-31T01:08:16.660Z,1008.2
2016-07-31T01:08:26.656Z,1008.2
2016-07-31T01:08:36.652Z,1008.22
2016-07-31T01:08:46.647Z,1008.21
2016-07-31T01:08:56.645Z,1008.21
2016-07-31T01:09:06.636Z,1008.17
2016-07-31T01:09:16.635Z,1008.22
2016-07-31T01:09:26.630Z,1008.18
2016-07-31T01:09:36.623Z,1008.18
2016-07-31T01:09:46.619Z,1008.25
2016-07-31T01:09:56.615Z,1008.19
2016-07-31T01:10:06.608Z,1008.23
2016-07-31T01:10:16.605Z,1008.21
2016-07-31T01:10:26.601Z,1008.24
2016-07-31T01:10:36.596Z,1008.18
2016-07-31T01:10:46.592Z,1008.23
2016-07-31T01:10:57.318Z,1008.18
2016-07-31T01:11:06.584Z,1008.21
2016-07-31T01:11:16.576Z,1008.22
2016-07-31T01:11:27.302Z,1008.21
2016-07-31T01:11:36.567Z,1008.23
2016-07-31T01:11:46.564Z,1008.24
2016-07-31T01:11:56.559Z,1008.19
2016-07-31T01:12:06.554Z,1008.19
2016-07-31T01:12:16.550Z,1008.21
2016-07-31T01:12:26.547Z,1008.24
2016-07-31T01:12:36.542Z,1008.21
2016-07-31T01:12:46.536Z,1008.2
2016-07-31T01:12:56.532Z,1008.19
2016-07-31T01:13:06.527Z,1008.18
2016-07-31T01:13:16.520Z,1008.22
2016-07-31T01:13:26.515Z,1008.18
2016-07-31T01:13:36.510Z,1008.21
2016-07-31T01:13:46.510Z,1008.22
2016-07-31T01:13:56.501Z,1008.21
2016-07-31T01:14:06.499Z,1008.23
2016-07-31T01:14:16.492Z,1008.22
2016-07-31T01:14:26.488Z,1008.22
2016-07-31T01:14:36.483Z,1008.18
2016-07-31T01:14:46.479Z,1008.19
2016-07-31T01:14:56.476Z,1008.17
2016-07-31T01:15:06.470Z,1008.2
2016-07-31T01:15:16.467Z,1008.17
2016-07-31T01:15:26.461Z,1008.2
2016-07-31T01:15:36.457Z,1008.2
2016-07-31T01:15:46.450Z,1008.2
2016-07-31T01:15:56.447Z,1008.19
2016-07-31T01:16:06.442Z,1008.18
2016-07-31T01:16:16.438Z,1008.14
2016-07-31T01:16:26.433Z,1008.18
2016-07-31T01:16:36.430Z,1008.19
2016-07-31T01:16:46.424Z,1008.17
2016-07-31T01:16:56.417Z,1008.19
2016-07-31T01:17:06.413Z,1008.19
2016-07-31T01:17:16.411Z,1008.18
2016-07-31T01:17:26.404Z,1008.24
2016-07-31T01:17:37.129Z,1008.24
2016-07-31T01:17:46.394Z,1008.21
2016-07-31T01:17:56.391Z,1008.18
2016-07-31T01:18:06.386Z,1008.2
2016-07-31T01:18:16.381Z,1008.17
2016-07-31T01:18:26.379Z,1008.23
2016-07-31T01:18:36.373Z,1008.18
2016-07-31T01:18:46.368Z,1008.19
2016-07-31T01:18:56.364Z,1008.18
2016-07-31T01:19:06.359Z,1008.16
2016-07-31T01:19:16.353Z,1008.18
2016-07-31T01:19:26.350Z,1008.19
2016-07-31T01:19:36.345Z,1008.22
2016-07-31T01:19:46.340Z,1008.26
2016-07-31T01:19:56.334Z,1008.22
2016-07-31T01:20:06.330Z,1008.19
2016-07-31T01:20:16.325Z,1008.23
2016-07-31T01:20:26.321Z,1008.21
2016-07-31T01:20:36.320Z,1008.22
2016-07-31T01:20:46.312Z,1008.18
2016-07-31T01:20:56.304Z,1008.19
2016-07-31T01:21:06.302Z,1008.23
2016-07-31T01:21:16.298Z,1008.22
2016-07-31T01:21:26.298Z,1008.24
2016-07-31T01:21:36.286Z,1008.2
2016-07-31T01:21:46.284Z,1008.19
2016-07-31T01:21:56.281Z,1008.2
2016-07-31T01:22:06.275Z,1008.21
2016-07-31T01:22:16.270Z,1008.24
2016-07-31T01:22:26.264Z,1008.23
2016-07-31T01:22:36.259Z,1008.2
2016-07-31T01:22:46.255Z,1008.26
2016-07-31T01:22:56.251Z,1008.21
2016-07-31T01:23:06.247Z,1008.2
2016-07-31T01:23:16.243Z,1008.22
2016-07-31T01:23:26.238Z,1008.23
2016-07-31T01:23:36.231Z,1008.21
2016-07-31T01:23:46.228Z,1008.17
2016-07-31T01:23:56.224Z,1008.19
2016-07-31T01:24:06.219Z,1008.2
2016-07-31T01:24:16.213Z,1008.19
2016-07-31T01:24:26.209Z,1008.23
2016-07-31T01:24:36.207Z,1008.18
2016-07-31T01:24:46.200Z,1008.2
2016-07-31T01:24:56.195Z,1008.15
2016-07-31T01:25:06.192Z,1008.17
2016-07-31T01:25:16.190Z,1008.16
2016-07-31T01:25:26.183Z,1008.15
2016-07-31T01:25:36.178Z,1008.17
2016-07-31T01:25:46.179Z,1008.15
2016-07-31T01:25:56.897Z,1008.19
2016-07-31T01:26:06.162Z,1008.16
2016-07-31T01:26:16.155Z,1008.18
2016-07-31T01:26:26.155Z,1008.16
2016-07-31T01:26:36.150Z,1008.15
2016-07-31T01:26:46.144Z,1008.19
2016-07-31T01:26:56.138Z,1008.2
2016-07-31T01:27:06.134Z,1008.2
2016-07-31T01:27:16.129Z,1008.14
2016-07-31T01:27:26.127Z,1008.19
2016-07-31T01:27:36.121Z,1008.17
2016-07-31T01:27:46.117Z,1008.19
2016-07-31T01:27:56.112Z,1008.18
2016-07-31T01:28:06.105Z,1008.11
2016-07-31T01:28:16.101Z,1008.18
2016-07-31T01:28:26.100Z,1008.19
2016-07-31T01:28:36.091Z,1008.19
2016-07-31T01:28:46.088Z,1008.17
2016-07-31T01:28:56.082Z,1008.18
2016-07-31T01:29:06.078Z,1008.18
2016-07-31T01:29:16.074Z,1008.14
2016-07-31T01:29:26.068Z,1008.17
2016-07-31T01:29:36.066Z,1008.2
2016-07-31T01:29:46.060Z,1008.16
2016-07-31T01:29:56.057Z,1008.14
2016-07-31T01:30:06.050Z,1008.16
2016-07-31T01:30:16.045Z,1008.16
2016-07-31T01:30:26.041Z,1008.16
2016-07-31T01:30:36.039Z,1008.19
2016-07-31T01:30:46.032Z,1008.17
2016-07-31T01:30:56.027Z,1008.12
2016-07-31T01:31:06.024Z,1008.15
2016-07-31T01:31:16.019Z,1008.13
2016-07-31T01:31:26.015Z,1008.16
2016-07-31T01:31:36.006Z,1008.13
2016-07-31T01:31:46.004Z,1008.13
2016-07-31T01:31:56.731Z,1008.16
2016-07-31T01:32:05.994Z,1008.18
2016-07-31T01:32:15.991Z,1008.16
2016-07-31T01:32:25.986Z,1008.14
2016-07-31T01:32:35.980Z,1008.12
2016-07-31T01:32:45.977Z,1008.11
2016-07-31T01:32:55.975Z,1008.14
2016-07-31T01:33:05.968Z,1008.11
2016-07-31T01:33:15.962Z,1008.13
2016-07-31T01:33:25.958Z,1008.18
2016-07-31T01:33:35.951Z,1008.12
2016-07-31T01:33:45.950Z,1008.16
2016-07-31T01:33:55.942Z,1008.12
2016-07-31T01:34:05.940Z,1008.18
2016-07-31T01:34:15.932Z,1008.13
2016-07-31T01:34:25.939Z,1008.1
2016-07-31T01:34:35.923Z,1008.1
2016-07-31T01:34:45.919Z,1008.09
2016-07-31T01:34:55.919Z,1008.1
2016-07-31T01:35:05.910Z,1008.14
2016-07-31T01:35:15.904Z,1008.13
2016-07-31T01:35:25.903Z,1008.12
2016-07-31T01:35:35.897Z,1008.1
2016-07-31T01:35:45.893Z,1008.15
2016-07-31T01:35:55.889Z,1008.13
2016-07-31T01:36:05.882Z,1008.2
2016-07-31T01:36:15.879Z,1008.17
2016-07-31T01:36:25.873Z,1008.16
2016-07-31T01:36:36.599Z,1008.13
2016-07-31T01:36:45.865Z,1008.11
2016-07-31T01:36:55.860Z,1008.14
2016-07-31T01:37:05.856Z,1008.12
2016-07-31T01:37:15.850Z,1008.19
2016-07-31T01:37:25.846Z,1008.18
2016-07-31T01:37:35.839Z,1008.16
2016-07-31T01:37:45.839Z,1008.12
2016-07-31T01:37:55.830Z,1008.17
2016-07-31T01:38:05.824Z,1008.18
2016-07-31T01:38:15.822Z,1008.12
2016-07-31T01:38:25.816Z,1008.16
2016-07-31T01:38:35.814Z,1008.16
2016-07-31T01:38:45.808Z,1008.17
2016-07-31T01:38:55.802Z,1008.15
2016-07-31T01:39:05.887Z,1008.13
2016-07-31T01:39:15.796Z,1008.15
2016-07-31T01:39:25.802Z,1008.17
2016-07-31T01:39:35.783Z,1008.18
2016-07-31T01:39:45.781Z,1008.15
2016-07-31T01:39:55.776Z,1008.12
2016-07-31T01:40:05.774Z,1008.12
2016-07-31T01:40:15.766Z,1008.13
2016-07-31T01:40:25.763Z,1008.17
2016-07-31T01:40:35.759Z,1008.15
2016-07-31T01:40:45.755Z,1008.17
2016-07-31T01:40:55.748Z,1008.17
2016-07-31T01:41:05.742Z,1008.2
2016-07-31T01:41:15.740Z,1008.16
2016-07-31T01:41:25.732Z,1008.19
2016-07-31T01:41:35.731Z,1008.16
2016-07-31T01:41:45.725Z,1008.16
2016-07-31T01:41:55.720Z,1008.21
2016-07-31T01:42:05.723Z,1008.18
2016-07-31T01:42:15.713Z,1008.19
2016-07-31T01:42:25.706Z,1008.19
2016-07-31T01:42:35.701Z,1008.14
2016-07-31T01:42:45.698Z,1008.17
2016-07-31T01:42:55.692Z,1008.2
2016-07-31T01:43:05.690Z,1008.2
2016-07-31T01:43:15.681Z,1008.23
2016-07-31T01:43:25.676Z,1008.23
2016-07-31T01:43:35.673Z,1008.19
2016-07-31T01:43:45.669Z,1008.19
2016-07-31T01:43:55.665Z,1008.19
2016-07-31T01:44:05.660Z,1008.18
2016-07-31T01:44:15.657Z,1008.19
2016-07-31T01:44:25.653Z,1008.2
2016-07-31T01:44:35.646Z,1008.22
2016-07-31T01:44:45.642Z,1008.21
2016-07-31T01:44:55.635Z,1008.21
2016-07-31T01:45:05.639Z,1008.2
2016-07-31T01:45:15.626Z,1008.2
2016-07-31T01:45:25.624Z,1008.21
2016-07-31T01:45:35.617Z,1008.19
2016-07-31T01:45:45.613Z,1008.21
2016-07-31T01:45:55.609Z,1008.17
2016-07-31T01:46:05.604Z,1008.19
2016-07-31T01:46:15.598Z,1008.22
2016-07-31T01:46:25.598Z,1008.23
2016-07-31T01:46:35.592Z,1008.21
2016-07-31T01:46:45.590Z,1008.16
2016-07-31T01:46:55.582Z,1008.21
2016-07-31T01:47:05.577Z,1008.28
2016-07-31T01:47:15.573Z,1008.22
2016-07-31T01:47:25.567Z,1008.26
2016-07-31T01:47:35.560Z,1008.28
2016-07-31T01:47:45.558Z,1008.23
2016-07-31T01:47:55.553Z,1008.22
2016-07-31T01:48:05.548Z,1008.19
2016-07-31T01:48:15.544Z,1008.24
2016-07-31T01:48:25.541Z,1008.24
2016-07-31T01:48:35.533Z,1008.25
2016-07-31T01:48:45.530Z,1008.22
2016-07-31T01:48:55.523Z,1008.28
2016-07-31T01:49:05.520Z,1008.23
2016-07-31T01:49:15.518Z,1008.26
2016-07-31T01:49:25.512Z,1008.26
2016-07-31T01:49:35.506Z,1008.25
2016-07-31T01:49:45.504Z,1008.25
2016-07-31T01:49:55.497Z,1008.26
2016-07-31T01:50:05.491Z,1008.19
2016-07-31T01:50:15.489Z,1008.23
2016-07-31T01:50:25.481Z,1008.23
2016-07-31T01:50:35.477Z,1008.21
2016-07-31T01:50:45.473Z,1008.25
2016-07-31T01:50:55.470Z,1008.23
2016-07-31T01:51:05.463Z,1008.25
2016-07-31T01:51:15.459Z,1008.26
2016-07-31T01:51:25.454Z,1008.27
2016-07-31T01:51:35.449Z,1008.28
2016-07-31T01:51:45.445Z,1008.3
2016-07-31T01:51:55.441Z,1008.27
2016-07-31T01:52:05.437Z,1008.3
2016-07-31T01:52:15.433Z,1008.28
2016-07-31T01:52:25.430Z,1008.3
2016-07-31T01:52:35.421Z,1008.26
2016-07-31T01:52:45.419Z,1008.29
2016-07-31T01:52:55.414Z,1008.3
2016-07-31T01:53:05.406Z,1008.28
2016-07-31T01:53:15.402Z,1008.34
2016-07-31T01:53:25.398Z,1008.36
2016-07-31T01:53:35.396Z,1008.33
2016-07-31T01:53:45.389Z,1008.29
2016-07-31T01:53:55.386Z,1008.3
2016-07-31T01:54:06.110Z,1008.29
2016-07-31T01:54:15.376Z,1008.31
2016-07-31T01:54:25.374Z,1008.35
2016-07-31T01:54:35.367Z,1008.28
2016-07-31T01:54:45.362Z,1008.29
2016-07-31T01:54:55.357Z,1008.33
2016-07-31T01:55:05.352Z,1008.33
2016-07-31T01:55:15.350Z,1008.29
2016-07-31T01:55:25.343Z,1008.34
2016-07-31T01:55:35.350Z,1008.32
2016-07-31T01:55:45.333Z,1008.36
2016-07-31T01:55:55.330Z,1008.32
2016-07-31T01:56:05.323Z,1008.33
2016-07-31T01:56:15.321Z,1008.36
2016-07-31T01:56:25.316Z,1008.36
2016-07-31T01:56:35.310Z,1008.32
2016-07-31T01:56:45.308Z,1008.31
2016-07-31T01:56:55.301Z,1008.33
2016-07-31T01:57:05.298Z,1008.36
2016-07-31T01:57:15.293Z,1008.36
2016-07-31T01:57:25.285Z,1008.36
2016-07-31T01:57:35.283Z,1008.38
2016-07-31T01:57:45.278Z,1008.37
2016-07-31T01:57:55.273Z,1008.36
2016-07-31T01:58:05.270Z,1008.38
2016-07-31T01:58:15.264Z,1008.4
2016-07-31T01:58:25.260Z,1008.37
2016-07-31T01:58:35.263Z,1008.36
2016-07-31T01:58:45.250Z,1008.32
2016-07-31T01:58:55.244Z,1008.35
2016-07-31T01:59:05.241Z,1008.43
2016-07-31T01:59:15.235Z,1008.36
2016-07-31T01:59:25.232Z,1008.36
2016-07-31T01:59:35.226Z,1008.35
2016-07-31T01:59:45.222Z,1008.39
2016-07-31T01:59:55.217Z,1008.38
2016-07-31T02:00:05.211Z,1008.34
2016-07-31T02:00:15.208Z,1008.39
2016-07-31T02:00:25.203Z,1008.37
2016-07-31T02:00:35.198Z,1008.36
2016-07-31T02:00:45.194Z,1008.35
2016-07-31T02:00:55.188Z,1008.39
2016-07-31T02:01:05.183Z,1008.39
2016-07-31T02:01:15.180Z,1008.44
2016-07-31T02:01:25.175Z,1008.43